Terminal Aerodrome Forecast
Issued by NWS Paducah, KY

Home | Current Version | Previous Version | Text Only | Print | Product List | Glossary On
Versions: 1 2 3 4 5 6 7 8 9 10 11 12 13 14 15 16
000
FTUS43 KPAH 180918 AAA
TAFEVV
TAF AMD
KEVV 180918Z 1809/1906 00000KT 1SM BR SKC
     FM181400 19008KT P6SM SKC
     FM182300 18002KT P6SM SKC=

USA.gov is the U.S. government's official web portal to all federal, state and local government web resources and services.